sensor_id;sensor_type;location;lat;lon;timestamp;P1;durP1;ratioP1;P2;durP2;ratioP2
25649;SDS011;13505;45.196;5.696;2023-08-17T04:32:02;8.50;;;4.15;;
25649;SDS011;13505;45.196;5.696;2023-08-17T04:36:53;5.72;;;4.53;;
25649;SDS011;13505;45.196;5.696;2023-08-17T04:41:43;5.80;;;4.40;;
25649;SDS011;13505;45.196;5.696;2023-08-17T04:46:34;4.82;;;4.00;;
25649;SDS011;13505;45.196;5.696;2023-08-17T04:51:25;9.50;;;4.90;;
25649;SDS011;13505;45.196;5.696;2023-08-17T04:56:15;6.00;;;4.03;;
25649;SDS011;13505;45.196;5.696;2023-08-17T05:01:06;5.73;;;4.10;;
25649;SDS011;13505;45.196;5.696;2023-08-17T05:05:56;7.97;;;4.40;;
25649;SDS011;13505;45.196;5.696;2023-08-17T05:10:46;8.50;;;4.37;;
25649;SDS011;13505;45.196;5.696;2023-08-17T05:15:37;8.90;;;4.60;;
25649;SDS011;13505;45.196;5.696;2023-08-17T05:20:27;8.57;;;4.10;;
25649;SDS011;13505;45.196;5.696;2023-08-17T05:25:17;9.60;;;4.70;;
25649;SDS011;13505;45.196;5.696;2023-08-17T05:30:08;13.40;;;4.80;;
25649;SDS011;13505;45.196;5.696;2023-08-17T05:34:58;7.25;;;3.90;;
25649;SDS011;13505;45.196;5.696;2023-08-17T05:39:49;14.52;;;4.53;;
25649;SDS011;13505;45.196;5.696;2023-08-17T05:44:40;11.18;;;4.75;;
25649;SDS011;13505;45.196;5.696;2023-08-17T05:49:30;9.33;;;4.70;;
25649;SDS011;13505;45.196;5.696;2023-08-17T05:54:21;14.00;;;4.95;;
25649;SDS011;13505;45.196;5.696;2023-08-17T05:59:11;10.10;;;4.07;;
25649;SDS011;13505;45.196;5.696;2023-08-17T06:04:02;11.70;;;4.70;;
25649;SDS011;13505;45.196;5.696;2023-08-17T06:08:52;10.93;;;4.68;;
25649;SDS011;13505;45.196;5.696;2023-08-17T06:13:43;10.53;;;4.60;;
25649;SDS011;13505;45.196;5.696;2023-08-17T06:18:33;9.57;;;4.50;;
25649;SDS011;13505;45.196;5.696;2023-08-17T06:23:24;13.07;;;4.63;;
25649;SDS011;13505;45.196;5.696;2023-08-17T06:28:15;10.05;;;5.35;;
25649;SDS011;13505;45.196;5.696;2023-08-17T06:33:05;10.48;;;4.60;;
25649;SDS011;13505;45.196;5.696;2023-08-17T06:37:55;15.93;;;5.30;;
25649;SDS011;13505;45.196;5.696;2023-08-17T06:42:47;11.70;;;5.65;;
25649;SDS011;13505;45.196;5.696;2023-08-17T06:47:38;9.15;;;5.38;;
25649;SDS011;13505;45.196;5.696;2023-08-17T06:52:28;17.70;;;5.50;;
25649;SDS011;13505;45.196;5.696;2023-08-17T06:57:18;9.38;;;4.78;;
25649;SDS011;13505;45.196;5.696;2023-08-17T07:02:11;11.95;;;4.50;;
25649;SDS011;13505;45.196;5.696;2023-08-17T07:07:02;7.20;;;4.10;;
25649;SDS011;13505;45.196;5.696;2023-08-17T07:11:52;11.53;;;4.40;;
25649;SDS011;13505;45.196;5.696;2023-08-17T07:16:42;8.70;;;4.33;;
25649;SDS011;13505;45.196;5.696;2023-08-17T07:21:33;11.13;;;4.60;;
25649;SDS011;13505;45.196;5.696;2023-08-17T07:26:23;10.30;;;4.40;;
25649;SDS011;13505;45.196;5.696;2023-08-17T07:31:13;7.53;;;4.35;;
25649;SDS011;13505;45.196;5.696;2023-08-17T07:36:04;8.93;;;4.93;;
25649;SDS011;13505;45.196;5.696;2023-08-17T07:40:54;14.88;;;5.22;;
25649;SDS011;13505;45.196;5.696;2023-08-17T07:45:45;13.05;;;4.75;;
25649;SDS011;13505;45.196;5.696;2023-08-17T07:50:35;6.65;;;4.47;;
25649;SDS011;13505;45.196;5.696;2023-08-17T07:55:26;7.93;;;4.50;;
25649;SDS011;13505;45.196;5.696;2023-08-17T08:00:16;8.07;;;4.30;;
25649;SDS011;13505;45.196;5.696;2023-08-17T08:05:07;12.65;;;4.68;;
25649;SDS011;13505;45.196;5.696;2023-08-17T08:09:58;5.65;;;4.00;;
25649;SDS011;13505;45.196;5.696;2023-08-17T08:14:48;8.40;;;4.03;;
25649;SDS011;13505;45.196;5.696;2023-08-17T08:19:39;8.80;;;4.03;;
25649;SDS011;13505;45.196;5.696;2023-08-17T08:24:29;12.30;;;4.07;;
25649;SDS011;13505;45.196;5.696;2023-08-17T08:29:23;11.00;;;4.40;;
25649;SDS011;13505;45.196;5.696;2023-08-17T08:34:14;8.93;;;4.63;;
25649;SDS011;13505;45.196;5.696;2023-08-17T08:39:04;10.60;;;4.80;;
25649;SDS011;13505;45.196;5.696;2023-08-17T08:43:54;7.90;;;5.57;;
25649;SDS011;13505;45.196;5.696;2023-08-17T08:48:45;14.98;;;5.88;;
25649;SDS011;13505;45.196;5.696;2023-08-17T08:53:43;13.27;;;6.07;;
25649;SDS011;13505;45.196;5.696;2023-08-17T08:58:35;8.85;;;5.53;;
25649;SDS011;13505;45.196;5.696;2023-08-17T09:03:26;11.07;;;5.68;;
25649;SDS011;13505;45.196;5.696;2023-08-17T09:08:24;7.00;;;5.13;;
25649;SDS011;13505;45.196;5.696;2023-08-17T09:13:19;14.85;;;5.43;;
25649;SDS011;13505;45.196;5.696;2023-08-17T09:18:09;11.83;;;5.57;;
25649;SDS011;13505;45.196;5.696;2023-08-17T09:23:00;17.05;;;6.05;;
25649;SDS011;13505;45.196;5.696;2023-08-17T09:27:54;11.52;;;5.80;;
25649;SDS011;13505;45.196;5.696;2023-08-17T09:32:47;12.07;;;5.80;;
25649;SDS011;13505;45.196;5.696;2023-08-17T09:37:37;11.70;;;5.93;;
25649;SDS011;13505;45.196;5.696;2023-08-17T09:42:28;11.70;;;5.80;;
25649;SDS011;13505;45.196;5.696;2023-08-17T09:47:18;10.55;;;5.60;;
25649;SDS011;13505;45.196;5.696;2023-08-17T09:52:11;8.85;;;5.43;;
25649;SDS011;13505;45.196;5.696;2023-08-17T09:57:01;16.40;;;9.90;;
25649;SDS011;13505;45.196;5.696;2023-08-17T10:01:52;8.73;;;5.35;;
25649;SDS011;13505;45.196;5.696;2023-08-17T10:06:42;12.20;;;5.50;;
25649;SDS011;13505;45.196;5.696;2023-08-17T10:11:33;10.65;;;5.57;;
25649;SDS011;13505;45.196;5.696;2023-08-17T10:16:43;13.27;;;5.68;;
25649;SDS011;13505;45.196;5.696;2023-08-17T10:21:46;12.02;;;5.43;;
25649;SDS011;13505;45.196;5.696;2023-08-17T10:26:43;9.80;;;5.45;;
25649;SDS011;13505;45.196;5.696;2023-08-17T10:31:35;10.70;;;5.45;;
25649;SDS011;13505;45.196;5.696;2023-08-17T10:36:25;10.30;;;4.97;;
25649;SDS011;13505;45.196;5.696;2023-08-17T10:41:16;7.22;;;4.70;;
25649;SDS011;13505;45.196;5.696;2023-08-17T10:46:16;9.37;;;4.57;;
25649;SDS011;13505;45.196;5.696;2023-08-17T10:51:06;8.75;;;4.82;;
25649;SDS011;13505;45.196;5.696;2023-08-17T10:56:03;6.88;;;4.63;;
25649;SDS011;13505;45.196;5.696;2023-08-17T11:00:58;10.68;;;4.53;;
25649;SDS011;13505;45.196;5.696;2023-08-17T11:05:52;6.90;;;4.77;;
25649;SDS011;13505;45.196;5.696;2023-08-17T11:10:47;17.35;;;4.38;;
25649;SDS011;13505;45.196;5.696;2023-08-17T11:15:48;6.40;;;3.85;;
25649;SDS011;13505;45.196;5.696;2023-08-17T11:20:40;8.10;;;4.75;;
25649;SDS011;13505;45.196;5.696;2023-08-17T11:25:32;10.48;;;4.88;;
25649;SDS011;13505;45.196;5.696;2023-08-17T11:30:24;11.57;;;4.80;;
25649;SDS011;13505;45.196;5.696;2023-08-17T11:35:15;11.00;;;4.18;;
25649;SDS011;13505;45.196;5.696;2023-08-17T11:40:05;4.83;;;4.07;;
25649;SDS011;13505;45.196;5.696;2023-08-17T11:44:56;8.68;;;4.00;;
25649;SDS011;13505;45.196;5.696;2023-08-17T11:49:50;9.13;;;4.47;;
25649;SDS011;13505;45.196;5.696;2023-08-17T11:54:40;8.95;;;4.15;;
25649;SDS011;13505;45.196;5.696;2023-08-17T11:59:31;9.55;;;3.90;;
25649;SDS011;13505;45.196;5.696;2023-08-17T12:04:23;6.90;;;3.28;;
25649;SDS011;13505;45.196;5.696;2023-08-17T12:09:14;10.40;;;4.07;;
25649;SDS011;13505;45.196;5.696;2023-08-17T12:14:08;7.10;;;4.25;;
25649;SDS011;13505;45.196;5.696;2023-08-17T12:19:00;9.90;;;4.05;;
25649;SDS011;13505;45.196;5.696;2023-08-17T12:23:51;11.63;;;3.80;;
25649;SDS011;13505;45.196;5.696;2023-08-17T12:28:41;13.30;;;4.18;;
25649;SDS011;13505;45.196;5.696;2023-08-17T12:33:32;16.33;;;4.37;;
25649;SDS011;13505;45.196;5.696;2023-08-17T12:38:23;10.10;;;3.87;;
25649;SDS011;13505;45.196;5.696;2023-08-17T12:43:14;9.40;;;3.65;;
25649;SDS011;13505;45.196;5.696;2023-08-17T12:48:05;9.37;;;3.67;;
25649;SDS011;13505;45.196;5.696;2023-08-17T12:52:55;9.40;;;3.22;;
25649;SDS011;13505;45.196;5.696;2023-08-17T12:57:46;6.87;;;2.60;;
25649;SDS011;13505;45.196;5.696;2023-08-17T13:02:36;8.47;;;2.40;;
25649;SDS011;13505;45.196;5.696;2023-08-17T13:07:26;7.37;;;3.07;;
25649;SDS011;13505;45.196;5.696;2023-08-17T13:12:17;7.67;;;2.70;;
25649;SDS011;13505;45.196;5.696;2023-08-17T13:17:07;10.30;;;2.53;;
25649;SDS011;13505;45.196;5.696;2023-08-17T13:21:57;8.27;;;2.97;;
25649;SDS011;13505;45.196;5.696;2023-08-17T13:26:48;7.97;;;2.70;;
25649;SDS011;13505;45.196;5.696;2023-08-17T13:31:42;5.43;;;2.70;;
25649;SDS011;13505;45.196;5.696;2023-08-17T13:36:33;5.97;;;2.53;;
25649;SDS011;13505;45.196;5.696;2023-08-17T13:41:23;10.37;;;3.27;;
25649;SDS011;13505;45.196;5.696;2023-08-17T13:46:15;7.70;;;2.72;;
25649;SDS011;13505;45.196;5.696;2023-08-17T13:51:05;8.23;;;2.73;;
25649;SDS011;13505;45.196;5.696;2023-08-17T13:55:55;10.63;;;3.47;;
25649;SDS011;13505;45.196;5.696;2023-08-17T14:00:46;12.27;;;3.57;;
25649;SDS011;13505;45.196;5.696;2023-08-17T14:05:36;6.83;;;3.03;;
25649;SDS011;13505;45.196;5.696;2023-08-17T14:10:26;6.23;;;3.07;;
25649;SDS011;13505;45.196;5.696;2023-08-17T14:15:17;5.93;;;3.30;;
25649;SDS011;13505;45.196;5.696;2023-08-17T14:20:07;7.73;;;3.00;;
25649;SDS011;13505;45.196;5.696;2023-08-17T14:24:58;8.93;;;3.17;;
25649;SDS011;13505;45.196;5.696;2023-08-17T14:29:49;13.18;;;3.08;;
25649;SDS011;13505;45.196;5.696;2023-08-17T14:34:39;5.33;;;2.87;;
25649;SDS011;13505;45.196;5.696;2023-08-17T14:39:30;8.97;;;3.20;;
25649;SDS011;13505;45.196;5.696;2023-08-17T14:44:20;5.87;;;2.80;;
25649;SDS011;13505;45.196;5.696;2023-08-17T14:49:11;11.85;;;3.40;;
25649;SDS011;13505;45.196;5.696;2023-08-17T14:54:01;7.57;;;3.13;;
25649;SDS011;13505;45.196;5.696;2023-08-17T14:58:52;11.45;;;3.20;;
25649;SDS011;13505;45.196;5.696;2023-08-17T15:03:42;9.53;;;2.97;;
25649;SDS011;13505;45.196;5.696;2023-08-17T15:08:32;7.00;;;2.90;;
25649;SDS011;13505;45.196;5.696;2023-08-17T15:13:23;10.00;;;3.37;;
25649;SDS011;13505;45.196;5.696;2023-08-17T15:18:13;7.70;;;3.67;;
25649;SDS011;13505;45.196;5.696;2023-08-17T15:23:03;8.00;;;3.40;;
25649;SDS011;13505;45.196;5.696;2023-08-17T15:27:54;4.97;;;3.33;;
25649;SDS011;13505;45.196;5.696;2023-08-17T15:32:44;8.20;;;3.43;;
25649;SDS011;13505;45.196;5.696;2023-08-17T15:37:34;9.37;;;3.97;;
25649;SDS011;13505;45.196;5.696;2023-08-17T15:42:27;4.70;;;3.22;;
25649;SDS011;13505;45.196;5.696;2023-08-17T15:47:17;7.90;;;3.23;;
25649;SDS011;13505;45.196;5.696;2023-08-17T15:52:08;8.18;;;3.67;;
25649;SDS011;13505;45.196;5.696;2023-08-17T15:56:59;5.53;;;3.30;;
25649;SDS011;13505;45.196;5.696;2023-08-17T16:01:49;6.83;;;3.63;;
25649;SDS011;13505;45.196;5.696;2023-08-17T16:06:39;8.27;;;3.30;;
25649;SDS011;13505;45.196;5.696;2023-08-17T16:11:33;5.45;;;3.30;;
25649;SDS011;13505;45.196;5.696;2023-08-17T16:16:24;9.47;;;3.47;;
25649;SDS011;13505;45.196;5.696;2023-08-17T16:21:14;4.63;;;3.03;;
25649;SDS011;13505;45.196;5.696;2023-08-17T16:26:04;5.80;;;2.97;;
25649;SDS011;13505;45.196;5.696;2023-08-17T16:30:55;4.03;;;3.20;;
25649;SDS011;13505;45.196;5.696;2023-08-17T16:35:45;8.30;;;3.17;;
25649;SDS011;13505;45.196;5.696;2023-08-17T16:40:35;8.67;;;3.60;;
25649;SDS011;13505;45.196;5.696;2023-08-17T16:45:26;4.55;;;3.22;;
25649;SDS011;13505;45.196;5.696;2023-08-17T16:50:16;7.15;;;3.90;;
25649;SDS011;13505;45.196;5.696;2023-08-17T16:55:06;8.77;;;4.00;;
25649;SDS011;13505;45.196;5.696;2023-08-17T16:59:57;8.30;;;3.57;;
25649;SDS011;13505;45.196;5.696;2023-08-17T17:04:47;7.67;;;3.73;;
25649;SDS011;13505;45.196;5.696;2023-08-17T17:09:37;7.70;;;3.67;;
25649;SDS011;13505;45.196;5.696;2023-08-17T17:14:28;7.70;;;3.70;;
25649;SDS011;13505;45.196;5.696;2023-08-17T17:19:18;15.80;;;4.20;;
25649;SDS011;13505;45.196;5.696;2023-08-17T17:24:09;6.33;;;3.90;;
25649;SDS011;13505;45.196;5.696;2023-08-17T17:28:59;5.57;;;3.83;;
25649;SDS011;13505;45.196;5.696;2023-08-17T17:33:51;5.18;;;3.40;;
25649;SDS011;13505;45.196;5.696;2023-08-17T17:38:42;5.70;;;3.47;;
25649;SDS011;13505;45.196;5.696;2023-08-17T17:43:32;3.93;;;3.40;;
25649;SDS011;13505;45.196;5.696;2023-08-17T17:48:22;3.97;;;3.57;;
25649;SDS011;13505;45.196;5.696;2023-08-17T17:53:13;6.70;;;4.10;;
25649;SDS011;13505;45.196;5.696;2023-08-17T17:58:03;4.18;;;3.72;;
25649;SDS011;13505;45.196;5.696;2023-08-17T18:03:07;11.15;;;4.15;;
25649;SDS011;13505;45.196;5.696;2023-08-17T18:08:00;6.63;;;3.70;;
25649;SDS011;13505;45.196;5.696;2023-08-17T18:12:50;4.63;;;3.83;;
25649;SDS011;13505;45.196;5.696;2023-08-17T18:17:41;7.15;;;3.97;;
25649;SDS011;13505;45.196;5.696;2023-08-17T18:22:32;5.40;;;3.42;;
25649;SDS011;13505;45.196;5.696;2023-08-17T18:27:22;5.03;;;3.80;;
25649;SDS011;13505;45.196;5.696;2023-08-17T18:32:12;4.97;;;3.77;;
25649;SDS011;13505;45.196;5.696;2023-08-17T18:37:03;6.07;;;3.90;;
25649;SDS011;13505;45.196;5.696;2023-08-17T18:41:53;5.57;;;3.58;;
25649;SDS011;13505;45.196;5.696;2023-08-17T18:46:44;6.07;;;3.40;;
25649;SDS011;13505;45.196;5.696;2023-08-17T18:51:34;9.13;;;3.83;;
25649;SDS011;13505;45.196;5.696;2023-08-17T18:56:24;6.23;;;3.43;;
25649;SDS011;13505;45.196;5.696;2023-08-17T19:01:15;6.70;;;3.37;;
25649;SDS011;13505;45.196;5.696;2023-08-17T19:06:05;5.30;;;3.63;;
25649;SDS011;13505;45.196;5.696;2023-08-17T19:10:56;8.55;;;4.10;;
25649;SDS011;13505;45.196;5.696;2023-08-17T19:15:46;7.40;;;4.00;;
25649;SDS011;13505;45.196;5.696;2023-08-17T19:20:36;6.57;;;3.97;;
25649;SDS011;13505;45.196;5.696;2023-08-17T19:25:27;6.17;;;4.20;;
25649;SDS011;13505;45.196;5.696;2023-08-17T19:30:17;11.30;;;4.72;;
25649;SDS011;13505;45.196;5.696;2023-08-17T19:35:08;7.45;;;3.88;;
25649;SDS011;13505;45.196;5.696;2023-08-17T19:39:59;5.38;;;4.00;;
25649;SDS011;13505;45.196;5.696;2023-08-17T19:44:49;6.10;;;3.88;;
25649;SDS011;13505;45.196;5.696;2023-08-17T19:49:39;6.37;;;3.60;;
25649;SDS011;13505;45.196;5.696;2023-08-17T19:54:30;4.60;;;3.70;;
25649;SDS011;13505;45.196;5.696;2023-08-17T19:59:20;5.03;;;3.70;;
25649;SDS011;13505;45.196;5.696;2023-08-17T20:04:10;5.03;;;3.87;;
25649;SDS011;13505;45.196;5.696;2023-08-17T20:09:01;5.17;;;3.60;;
25649;SDS011;13505;45.196;5.696;2023-08-17T20:13:51;4.17;;;3.37;;
25649;SDS011;13505;45.196;5.696;2023-08-17T20:18:41;5.00;;;3.70;;
25649;SDS011;13505;45.196;5.696;2023-08-17T20:23:32;4.38;;;3.45;;
25649;SDS011;13505;45.196;5.696;2023-08-17T20:28:23;5.10;;;3.30;;
25649;SDS011;13505;45.196;5.696;2023-08-17T20:33:13;4.43;;;3.47;;
25649;SDS011;13505;45.196;5.696;2023-08-17T20:38:03;6.97;;;4.20;;
25649;SDS011;13505;45.196;5.696;2023-08-17T20:42:54;9.57;;;3.80;;
25649;SDS011;13505;45.196;5.696;2023-08-17T20:47:44;7.03;;;4.53;;
25649;SDS011;13505;45.196;5.696;2023-08-17T20:52:36;7.68;;;4.05;;
25649;SDS011;13505;45.196;5.696;2023-08-17T20:57:27;10.57;;;4.20;;
25649;SDS011;13505;45.196;5.696;2023-08-17T21:02:17;14.43;;;4.30;;
25649;SDS011;13505;45.196;5.696;2023-08-17T21:07:08;6.80;;;4.30;;
25649;SDS011;13505;45.196;5.696;2023-08-17T21:11:58;4.70;;;4.10;;
25649;SDS011;13505;45.196;5.696;2023-08-17T21:16:51;6.38;;;4.38;;
25649;SDS011;13505;45.196;5.696;2023-08-17T21:21:42;6.97;;;4.40;;
25649;SDS011;13505;45.196;5.696;2023-08-17T21:26:32;7.10;;;4.47;;
25649;SDS011;13505;45.196;5.696;2023-08-17T21:31:23;8.90;;;4.63;;
25649;SDS011;13505;45.196;5.696;2023-08-17T21:36:14;9.20;;;4.45;;
25649;SDS011;13505;45.196;5.696;2023-08-17T21:41:04;7.30;;;4.47;;
25649;SDS011;13505;45.196;5.696;2023-08-17T21:45:55;4.67;;;4.17;;
25649;SDS011;13505;45.196;5.696;2023-08-17T21:50:46;4.85;;;4.30;;
25649;SDS011;13505;45.196;5.696;2023-08-17T21:55:36;7.13;;;4.55;;
